createdAt,value
2019-05-17T00:00:11.626Z,8.9
2019-05-17T00:01:13.487Z,9
2019-05-17T00:02:18.022Z,8.9
2019-05-17T00:03:19.884Z,9.1
2019-05-17T00:04:21.747Z,8.9
2019-05-17T00:05:23.607Z,9
2019-05-17T00:06:27.892Z,9
2019-05-17T00:07:29.791Z,9
2019-05-17T00:08:34.672Z,8.9
2019-05-17T00:09:39.572Z,8.9
2019-05-17T00:10:41.408Z,9
2019-05-17T00:11:42.990Z,8.9
2019-05-17T00:12:46.901Z,9
2019-05-17T00:13:48.922Z,9.1
2019-05-17T00:14:50.508Z,8.9
2019-05-17T00:15:52.375Z,8.9
2019-05-17T00:16:57.362Z,8.9
2019-05-17T00:17:59.254Z,8.9
2019-05-17T00:19:01.122Z,8.9
2019-05-17T00:20:02.986Z,8.9
2019-05-17T00:21:07.668Z,8.9
2019-05-17T00:22:09.657Z,8.9
2019-05-17T00:23:11.522Z,8.9
2019-05-17T00:24:13.385Z,9
2019-05-17T00:25:16.596Z,9
2019-05-17T00:26:18.612Z,9
2019-05-17T00:27:20.460Z,8.9
2019-05-17T00:28:22.324Z,8.9
2019-05-17T00:29:23.905Z,8.9
2019-05-17T00:30:27.821Z,8.9
2019-05-17T00:31:29.684Z,8.9
2019-05-17T00:32:31.268Z,8.9
2019-05-17T00:33:32.854Z,8.9
2019-05-17T00:34:34.435Z,8.9
2019-05-17T00:35:38.549Z,9
2019-05-17T00:36:40.410Z,8.8
2019-05-17T00:37:42.283Z,9
2019-05-17T00:38:48.862Z,8.8
2019-05-17T00:39:53.122Z,8.9
2019-05-17T00:40:57.521Z,8.9
2019-05-17T00:41:59.108Z,8.9
2019-05-17T00:43:00.694Z,8.8
2019-05-17T00:44:02.542Z,8.9
2019-05-17T00:45:06.901Z,8.9
2019-05-17T00:46:08.770Z,8.9
2019-05-17T00:47:10.631Z,8.9
2019-05-17T00:48:12.495Z,9
2019-05-17T00:49:14.357Z,8.8
2019-05-17T00:50:18.393Z,9
2019-05-17T00:51:20.257Z,9
2019-05-17T00:52:22.118Z,9
2019-05-17T00:53:23.978Z,9
2019-05-17T00:54:28.304Z,9
2019-05-17T00:55:30.168Z,9
2019-05-17T00:56:32.036Z,8.8
2019-05-17T00:57:33.338Z,8.9
2019-05-17T00:58:37.710Z,8.9
2019-05-17T00:59:39.589Z,9
2019-05-17T01:00:41.470Z,8.8
2019-05-17T01:01:43.032Z,8.9
2019-05-17T01:02:47.337Z,9
2019-05-17T01:03:48.928Z,8.8
2019-05-17T01:04:50.793Z,8.9
2019-05-17T01:05:52.651Z,8.8
2019-05-17T01:06:56.251Z,8.9
2019-05-17T01:07:58.211Z,9
2019-05-17T01:09:03.542Z,8.9
2019-05-17T01:10:08.222Z,8.8
2019-05-17T01:11:10.068Z,8.9
2019-05-17T01:12:11.933Z,8.9
2019-05-17T01:13:13.791Z,9
2019-05-17T01:14:17.811Z,8.9
2019-05-17T01:15:19.398Z,9
2019-05-17T01:16:21.262Z,9
2019-05-17T01:17:23.125Z,8.9
2019-05-17T01:18:26.894Z,8.9
2019-05-17T01:19:28.934Z,8.9
2019-05-17T01:20:30.505Z,8.9
2019-05-17T01:21:32.374Z,9
2019-05-17T01:22:33.961Z,8.9
2019-05-17T01:23:38.046Z,8.9
2019-05-17T01:24:39.918Z,8.9
2019-05-17T01:25:41.780Z,8.9
2019-05-17T01:26:43.640Z,8.9
2019-05-17T01:27:47.707Z,8.9
2019-05-17T01:28:49.577Z,8.9
2019-05-17T01:29:51.449Z,8.8
2019-05-17T01:30:52.498Z,8.9
2019-05-17T01:31:54.361Z,8.9
2019-05-17T01:32:58.506Z,8.9
2019-05-17T01:34:00.383Z,8.8
2019-05-17T01:35:02.230Z,8.8
2019-05-17T01:36:06.581Z,8.8
2019-05-17T01:37:08.324Z,8.9
2019-05-17T01:38:10.185Z,8.8
2019-05-17T01:39:17.161Z,8.9
2019-05-17T01:40:22.816Z,8.8
2019-05-17T01:41:26.872Z,8.9
2019-05-17T01:42:28.734Z,8.9
2019-05-17T01:43:30.321Z,8.8
2019-05-17T01:44:32.176Z,8.8
2019-05-17T01:45:36.385Z,8.8
2019-05-17T01:46:38.354Z,8.7
2019-05-17T01:47:40.217Z,8.8
2019-05-17T01:48:42.081Z,9
2019-05-17T01:49:43.944Z,8.8
2019-05-17T01:50:48.369Z,8.8
2019-05-17T01:51:50.230Z,8.8
2019-05-17T01:52:52.096Z,8.8
2019-05-17T01:53:53.953Z,8.8
2019-05-17T01:54:58.189Z,8.9
2019-05-17T01:56:00.053Z,8.9
2019-05-17T01:57:01.914Z,8.8
2019-05-17T01:58:03.784Z,8.9
2019-05-17T01:59:08.142Z,8.9
2019-05-17T02:00:10.008Z,8.9
2019-05-17T02:01:11.870Z,8.9
2019-05-17T02:02:13.731Z,8.9
2019-05-17T02:03:17.798Z,8.8
2019-05-17T02:04:18.551Z,8.8
2019-05-17T02:05:20.413Z,8.8
2019-05-17T02:06:22.280Z,8.8
2019-05-17T02:07:26.613Z,8.7
2019-05-17T02:08:28.287Z,8.9
2019-05-17T02:09:36.886Z,8.8
2019-05-17T02:10:43.148Z,8.8
2019-05-17T02:11:47.006Z,8.8
2019-05-17T02:12:49.158Z,8.8
2019-05-17T02:13:51.084Z,8.8
2019-05-17T02:14:52.947Z,8.6
2019-05-17T02:15:56.402Z,8.8
2019-05-17T02:16:58.358Z,8.8
2019-05-17T02:18:00.220Z,8.9
2019-05-17T02:19:02.085Z,8.7
2019-05-17T02:20:06.299Z,8.7
2019-05-17T02:21:08.237Z,8.8
2019-05-17T02:22:10.098Z,8.7
2019-05-17T02:23:11.960Z,8.9
2019-05-17T02:24:13.822Z,8.7
2019-05-17T02:25:18.279Z,8.8
2019-05-17T02:26:20.140Z,8.8
2019-05-17T02:27:24.263Z,8.8
2019-05-17T02:28:44.884Z,8.8
2019-05-17T02:29:46.456Z,8.8
2019-05-17T02:30:48.319Z,8.8
2019-05-17T02:31:53.880Z,8.7
2019-05-17T02:32:55.750Z,8.7
2019-05-17T02:33:57.620Z,8.7
2019-05-17T02:35:03.002Z,8.8
2019-05-17T02:36:05.150Z,8.8
2019-05-17T02:37:08.098Z,8.8
2019-05-17T02:38:12.966Z,8.8
2019-05-17T02:39:15.009Z,8.8
2019-05-17T02:40:16.304Z,8.8
2019-05-17T02:41:18.172Z,8.8
2019-05-17T02:42:23.506Z,8.8
2019-05-17T02:43:25.372Z,8.8
2019-05-17T02:44:27.234Z,8.8
2019-05-17T02:45:29.095Z,8.8
2019-05-17T02:46:34.333Z,8.8
2019-05-17T02:47:36.204Z,9
2019-05-17T02:48:38.069Z,8.9
2019-05-17T02:49:42.269Z,8.9
2019-05-17T02:50:47.300Z,8.8
2019-05-17T02:51:53.576Z,8.8
2019-05-17T02:52:55.436Z,8.9
2019-05-17T02:53:57.022Z,8.8
2019-05-17T02:54:58.894Z,8.8
2019-05-17T02:56:04.798Z,8.8
2019-05-17T02:57:06.658Z,8.8
2019-05-17T02:58:08.254Z,8.8
2019-05-17T02:59:13.687Z,8.8
2019-05-17T03:00:15.681Z,8.8
2019-05-17T03:01:16.730Z,8.8
2019-05-17T03:02:18.594Z,8.8
2019-05-17T03:03:28.783Z,8.7
2019-05-17T03:04:33.217Z,8.7
2019-05-17T03:05:35.078Z,8.8
2019-05-17T03:06:36.940Z,8.8
2019-05-17T03:07:38.803Z,8.8
2019-05-17T03:08:44.845Z,8.8
2019-05-17T03:09:46.717Z,8.9
2019-05-17T03:10:48.618Z,8.8
2019-05-17T03:11:57.001Z,8.9
2019-05-17T03:12:59.057Z,8.8
2019-05-17T03:14:04.998Z,8.8
2019-05-17T03:15:06.861Z,8.8
2019-05-17T03:16:08.722Z,8.8
2019-05-17T03:17:13.770Z,8.9
2019-05-17T03:18:15.853Z,9
2019-05-17T03:19:17.714Z,8.8
2019-05-17T03:20:22.917Z,8.8
2019-05-17T03:21:25.041Z,8.8
2019-05-17T03:22:26.903Z,8.8
2019-05-17T03:23:28.766Z,8.8
2019-05-17T03:24:34.173Z,8.8
2019-05-17T03:25:36.031Z,8.9
2019-05-17T03:26:37.893Z,8.9
2019-05-17T03:27:42.532Z,8.8
2019-05-17T03:28:45.049Z,8.9
2019-05-17T03:29:46.896Z,8.9
2019-05-17T03:30:48.757Z,8.8
2019-05-17T03:31:59.877Z,8.8
2019-05-17T03:33:18.438Z,8.8
2019-05-17T03:34:27.364Z,8.9
2019-05-17T03:35:29.023Z,8.9
2019-05-17T03:36:39.284Z,8.8
2019-05-17T03:37:47.974Z,8.8
2019-05-17T03:38:53.581Z,8.8
2019-05-17T03:39:54.892Z,8.9
2019-05-17T03:41:08.988Z,8.9
2019-05-17T03:42:33.626Z,8.7
2019-05-17T03:43:36.560Z,8.9
2019-05-17T03:44:45.468Z,8.8
2019-05-17T03:45:47.052Z,8.9
2019-05-17T03:46:48.639Z,8.9
2019-05-17T03:47:54.036Z,8.8
2019-05-17T03:48:55.898Z,8.9
2019-05-17T03:49:57.758Z,8.9
2019-05-17T03:51:03.434Z,9
2019-05-17T03:52:05.293Z,8.9
2019-05-17T03:53:06.879Z,8.9
2019-05-17T03:54:08.746Z,9
2019-05-17T03:55:14.619Z,8.9
2019-05-17T03:56:16.201Z,9.1
2019-05-17T03:57:18.065Z,8.9
2019-05-17T03:58:23.269Z,8.9
2019-05-17T03:59:25.284Z,8.9
2019-05-17T04:00:27.145Z,8.9
2019-05-17T04:01:29.007Z,9
2019-05-17T04:02:34.110Z,9
2019-05-17T04:03:35.968Z,8.9
2019-05-17T04:04:37.555Z,9
2019-05-17T04:05:42.616Z,9
2019-05-17T04:06:44.063Z,8.9
2019-05-17T04:07:45.926Z,8.9
2019-05-17T04:08:47.782Z,9.1
2019-05-17T04:09:52.925Z,9
2019-05-17T04:10:55.018Z,9
2019-05-17T04:11:56.879Z,9.1
2019-05-17T04:12:58.743Z,9.1
2019-05-17T04:14:04.376Z,9.1
2019-05-17T04:15:06.239Z,9.1
2019-05-17T04:16:09.321Z,9.1
2019-05-17T04:17:15.411Z,9.1
2019-05-17T04:18:16.437Z,9.2
2019-05-17T04:19:18.311Z,9.1
2019-05-17T04:20:23.334Z,9.2
2019-05-17T04:21:25.194Z,9.1
2019-05-17T04:22:27.056Z,9.1
2019-05-17T04:23:28.916Z,9.2
2019-05-17T04:24:34.674Z,9.1
2019-05-17T04:25:38.782Z,9.2
2019-05-17T04:26:44.174Z,9.2
2019-05-17T04:27:46.046Z,9.1
2019-05-17T04:28:47.960Z,9.1
2019-05-17T04:29:53.006Z,9.1
2019-05-17T04:30:55.080Z,9.1
2019-05-17T04:31:56.659Z,9.2
2019-05-17T04:32:58.242Z,9
2019-05-17T04:34:03.763Z,9.2
2019-05-17T04:35:05.617Z,9
2019-05-17T04:36:07.488Z,9
2019-05-17T04:37:09.342Z,9.1
2019-05-17T04:38:13.915Z,9
2019-05-17T04:39:15.779Z,9.2
2019-05-17T04:40:17.367Z,9.1
2019-05-17T04:41:35.603Z,9
2019-05-17T04:42:55.661Z,9.2
2019-05-17T04:43:57.509Z,9.2
2019-05-17T04:45:03.840Z,9
2019-05-17T04:46:05.831Z,9.2
2019-05-17T04:47:07.415Z,9.2
2019-05-17T04:48:09.277Z,9
2019-05-17T04:49:14.520Z,9.2
2019-05-17T04:50:16.377Z,9.2
2019-05-17T04:51:17.440Z,9.2
2019-05-17T04:52:22.513Z,9.2
2019-05-17T04:53:24.590Z,9.2
2019-05-17T04:54:26.456Z,9.2
2019-05-17T04:55:28.310Z,9.3
2019-05-17T04:56:32.964Z,9.2
2019-05-17T04:57:35.218Z,9.1
2019-05-17T04:58:37.076Z,9.3
2019-05-17T04:59:38.940Z,9.3
2019-05-17T05:00:44.129Z,9.1
2019-05-17T05:01:45.712Z,9.4
2019-05-17T05:02:47.582Z,9.3
2019-05-17T05:03:52.256Z,9.3
2019-05-17T05:04:54.295Z,9.2
2019-05-17T05:05:56.155Z,9.3
2019-05-17T05:06:58.015Z,9.3
2019-05-17T05:08:02.635Z,9.2
2019-05-17T05:09:05.043Z,9.4
2019-05-17T05:10:06.902Z,9.3
2019-05-17T05:11:08.763Z,9.3
2019-05-17T05:12:13.535Z,9.3
2019-05-17T05:13:15.457Z,9.3
2019-05-17T05:14:17.327Z,9.3
2019-05-17T05:15:19.184Z,9.4
2019-05-17T05:16:23.944Z,9.3
2019-05-17T05:17:25.804Z,9.4
2019-05-17T05:18:27.675Z,9.3
2019-05-17T05:19:29.263Z,9.4
2019-05-17T05:20:33.764Z,9.3
2019-05-17T05:21:35.616Z,9.3
2019-05-17T05:22:37.475Z,9.3
2019-05-17T05:23:39.338Z,9.3
2019-05-17T05:24:43.302Z,9.3
2019-05-17T05:25:45.174Z,9.3
2019-05-17T05:26:47.018Z,9.3
2019-05-17T05:27:48.887Z,9.3
2019-05-17T05:28:53.089Z,9.3
2019-05-17T05:29:54.947Z,9.4
2019-05-17T05:30:56.527Z,9.4
2019-05-17T05:31:58.392Z,9.3
2019-05-17T05:33:03.014Z,9.4
2019-05-17T05:34:04.890Z,9.4
2019-05-17T16:04:54.778Z,16.1
2019-05-17T16:05:56.097Z,15.9
2019-05-17T16:06:57.969Z,16
2019-05-17T16:07:59.565Z,16
2019-05-17T16:09:01.435Z,16.1
2019-05-17T16:10:03.603Z,15.9
2019-05-17T16:11:05.480Z,16
2019-05-17T16:12:07.039Z,16
2019-05-17T16:13:08.630Z,16
2019-05-17T16:14:10.500Z,16.1
2019-05-17T16:15:12.370Z,16
2019-05-17T16:16:14.240Z,16.2
2019-05-17T16:17:16.113Z,16
2019-05-17T16:18:17.979Z,16
2019-05-17T16:19:19.893Z,15.9
2019-05-17T16:20:21.506Z,15.9
2019-05-17T16:21:23.369Z,15.9
2019-05-17T16:22:25.242Z,15.8
2019-05-17T16:23:26.833Z,15.9
2019-05-17T16:24:28.719Z,15.8
2019-05-17T16:25:33.779Z,15.7
2019-05-17T16:26:35.237Z,15.7
2019-05-17T16:27:37.104Z,15.5
2019-05-17T16:28:38.709Z,15.5
2019-05-17T16:29:40.302Z,15.5
2019-05-17T16:30:41.930Z,15.4
2019-05-17T16:31:43.520Z,15.3
2019-05-17T16:32:45.423Z,15.3
2019-05-17T16:33:50.366Z,15.3
2019-05-17T16:34:52.720Z,15.3
2019-05-17T16:35:54.589Z,15.3
2019-05-17T16:36:56.470Z,15.4
2019-05-17T16:37:58.339Z,15.3
2019-05-17T16:38:59.933Z,15.4
2019-05-17T16:40:01.805Z,15.4
2019-05-17T16:41:03.723Z,15.3
2019-05-17T16:42:05.379Z,15.4
2019-05-17T16:43:17.419Z,15.4
2019-05-17T16:44:20.257Z,15.6
2019-05-17T16:45:22.132Z,15.5
2019-05-17T16:46:24.002Z,15.5
2019-05-17T16:47:25.887Z,15.4
2019-05-17T16:48:27.486Z,15.4
2019-05-17T16:49:29.357Z,15.6
2019-05-17T16:50:31.223Z,15.5
2019-05-17T16:51:33.196Z,15.5
2019-05-17T16:52:35.122Z,15.5
2019-05-17T16:53:36.975Z,15.3
2019-05-17T16:54:38.578Z,15.4
2019-05-17T16:55:40.935Z,15.4
2019-05-17T16:56:42.526Z,15.2
2019-05-17T16:57:44.401Z,15.3
2019-05-17T16:58:46.279Z,15.3
2019-05-17T16:59:48.146Z,15.2
2019-05-17T17:00:50.024Z,15.2
2019-05-17T17:01:51.607Z,15.3
2019-05-17T17:02:53.476Z,15.3
2019-05-17T17:03:54.788Z,15.2
2019-05-17T17:04:56.674Z,15.2
2019-05-17T17:05:58.536Z,15.2
2019-05-17T17:06:59.294Z,15.1
2019-05-17T17:08:01.166Z,15.1
2019-05-17T17:09:02.476Z,15.1
2019-05-17T17:10:04.351Z,15.1
2019-05-17T17:11:06.232Z,15.1
2019-05-17T17:12:07.825Z,15.1
2019-05-17T17:13:09.694Z,15.1
2019-05-17T17:14:11.562Z,15.2
2019-05-17T17:15:13.436Z,15.1
2019-05-17T17:16:15.312Z,14.9
2019-05-17T17:17:17.186Z,15
2019-05-17T17:18:19.063Z,14.9
2019-05-17T17:19:20.662Z,14.9
2019-05-17T17:20:21.436Z,15.1
2019-05-17T17:21:23.304Z,14.9
2019-05-17T17:22:24.974Z,14.9
2019-05-17T17:23:26.838Z,14.8
2019-05-17T17:24:28.712Z,14.9
2019-05-17T17:25:30.593Z,14.9
2019-05-17T17:26:32.483Z,14.8
2019-05-17T17:27:34.347Z,14.9
2019-05-17T17:28:36.227Z,15
2019-05-17T17:29:37.821Z,14.9
2019-05-17T17:30:39.697Z,14.9
2019-05-17T17:31:40.456Z,14.9
2019-05-17T17:32:42.048Z,14.9
2019-05-17T17:33:43.918Z,14.8
2019-05-17T17:34:45.794Z,14.7
2019-05-17T17:35:47.658Z,14.9
2019-05-17T17:36:49.529Z,14.9
2019-05-17T17:37:51.137Z,14.8
2019-05-17T17:38:52.989Z,14.8
2019-05-17T17:39:54.891Z,14.8
2019-05-17T17:40:56.744Z,14.9
2019-05-17T17:41:58.624Z,14.8
2019-05-17T17:42:59.404Z,14.8
2019-05-17T17:44:01.278Z,14.8
2019-05-17T17:45:03.140Z,14.8
2019-05-17T17:46:05.009Z,14.8
2019-05-17T17:47:06.878Z,14.8
2019-05-17T17:48:08.470Z,14.7
2019-05-17T17:49:10.339Z,14.8
2019-05-17T17:50:12.208Z,14.7
2019-05-17T17:51:14.100Z,14.7
2019-05-17T17:52:15.976Z,14.7
2019-05-17T17:53:17.345Z,14.8
2019-05-17T17:54:19.215Z,14.8
2019-05-17T17:55:20.812Z,14.8
2019-05-17T17:56:22.711Z,14.8
2019-05-17T17:57:24.718Z,14.6
2019-05-17T17:58:26.569Z,14.6
2019-05-17T17:59:28.438Z,14.8
2019-05-17T18:00:30.310Z,14.7
2019-05-17T18:01:32.197Z,14.7
2019-05-17T18:02:34.061Z,14.6
2019-05-17T18:03:35.682Z,14.7
2019-05-17T18:04:37.281Z,14.6
2019-05-17T18:05:38.879Z,14.7
2019-05-17T18:06:40.747Z,14.7
2019-05-17T18:07:42.626Z,14.7
2019-05-17T18:08:44.549Z,14.7
2019-05-17T18:09:46.420Z,14.7
2019-05-17T18:10:48.015Z,14.7
2019-05-17T18:11:49.887Z,14.7
2019-05-17T18:12:51.481Z,14.7
2019-05-17T18:13:53.074Z,14.7
2019-05-17T18:14:55.067Z,14.7
2019-05-17T18:15:56.940Z,14.6
2019-05-17T18:16:58.534Z,14.7
2019-05-17T18:18:00.404Z,14.7
2019-05-17T18:19:02.273Z,14.5
2019-05-17T18:20:03.866Z,14.7
2019-05-17T18:21:05.736Z,14.7
2019-05-17T18:22:07.611Z,14.7
2019-05-17T18:23:09.249Z,14.6
2019-05-17T18:24:11.112Z,14.5
2019-05-17T18:25:12.989Z,14.5
2019-05-17T18:26:14.634Z,14.7
2019-05-17T18:27:16.519Z,14.5
2019-05-17T18:28:18.120Z,14.5
2019-05-17T18:29:19.707Z,14.7
2019-05-17T18:30:21.592Z,14.6
2019-05-17T18:31:23.463Z,14.7
2019-05-17T18:32:25.329Z,14.6
2019-05-17T18:33:27.206Z,14.4
2019-05-17T18:34:29.076Z,14.4
2019-05-17T18:35:30.679Z,14.5
2019-05-17T18:36:32.558Z,14.5
2019-05-17T18:37:34.170Z,14.4
2019-05-17T18:38:36.068Z,14.5
2019-05-17T18:39:37.711Z,14.4
2019-05-17T18:40:39.600Z,14.5
2019-05-17T18:41:41.465Z,14.6
2019-05-17T18:42:43.339Z,14.4
2019-05-17T18:43:45.221Z,14.4
2019-05-17T18:44:47.092Z,14.5
2019-05-17T18:45:49.114Z,14.4
2019-05-17T18:46:50.708Z,14.4
2019-05-17T18:47:52.371Z,14.5
2019-05-17T18:48:54.552Z,14.5
2019-05-17T18:49:56.431Z,14.3
2019-05-17T18:50:58.307Z,14.3
2019-05-17T18:52:00.176Z,14.3
2019-05-17T18:53:02.407Z,14.3
2019-05-17T18:54:16.693Z,14.3
2019-05-17T18:55:18.552Z,14.3
2019-05-17T18:56:20.144Z,14.1
2019-05-17T18:57:22.012Z,14.2
2019-05-17T18:58:23.888Z,14.2
2019-05-17T18:59:25.760Z,14.3
2019-05-17T19:00:27.639Z,14.1
2019-05-17T19:01:29.547Z,14.2
2019-05-17T19:02:31.418Z,14.2
2019-05-17T19:03:33.289Z,14
2019-05-17T19:04:34.888Z,14.1
2019-05-17T19:05:36.476Z,14.1
2019-05-17T19:06:38.343Z,13.9
2019-05-17T19:07:39.931Z,14
2019-05-17T19:08:41.797Z,13.9
2019-05-17T19:09:43.676Z,14
2019-05-17T19:10:45.602Z,13.9
2019-05-17T19:11:47.193Z,14
2019-05-17T19:12:49.063Z,13.9
2019-05-17T19:13:50.652Z,14.1
2019-05-17T19:14:52.523Z,14
2019-05-17T19:15:54.390Z,14
2019-05-17T19:16:56.258Z,14.1
2019-05-17T19:17:58.127Z,14.1
2019-05-17T19:19:00.000Z,13.9
2019-05-17T19:20:01.869Z,13.9
2019-05-17T19:21:03.734Z,13.8
2019-05-17T19:22:05.601Z,14
2019-05-17T19:23:07.473Z,14
2019-05-17T19:24:09.338Z,13.8
2019-05-17T19:25:11.204Z,13.9
2019-05-17T19:26:13.071Z,13.8
2019-05-17T19:27:14.941Z,13.8
2019-05-17T19:28:16.812Z,13.9
2019-05-17T19:29:18.679Z,13.8
2019-05-17T19:30:20.277Z,13.7
2019-05-17T19:31:22.306Z,13.9
2019-05-17T19:32:24.157Z,13.9
2019-05-17T19:33:26.035Z,13.8
2019-05-17T19:34:27.923Z,13.7
2019-05-17T19:35:29.790Z,13.8
2019-05-17T19:36:31.700Z,13.8
2019-05-17T19:37:33.565Z,13.6
2019-05-17T19:38:35.431Z,13.6
2019-05-17T19:39:37.300Z,13.8
2019-05-17T19:40:39.169Z,13.6
2019-05-17T19:41:41.040Z,13.6
2019-05-17T19:42:42.910Z,13.6
2019-05-17T19:43:44.773Z,13.6
2019-05-17T19:44:58.445Z,13.5
2019-05-17T19:46:00.841Z,13.5
2019-05-17T19:47:02.708Z,13.5
2019-05-17T19:48:04.578Z,13.5
2019-05-17T19:49:06.158Z,13.4
2019-05-17T19:50:07.763Z,13.3
2019-05-17T19:51:09.632Z,13.3
2019-05-17T19:52:11.517Z,13.3
2019-05-17T19:53:13.371Z,13.4
2019-05-17T19:54:14.948Z,13.4
2019-05-17T19:55:16.829Z,13.5
2019-05-17T19:56:18.686Z,13.3
2019-05-17T19:57:20.568Z,13.4
2019-05-17T19:58:22.486Z,13.4
2019-05-17T19:59:24.357Z,13.4
2019-05-17T20:00:26.220Z,13.4
2019-05-17T20:01:28.087Z,13.3
2019-05-17T20:02:29.957Z,13.3
2019-05-17T20:03:31.822Z,13.5
2019-05-17T20:04:33.120Z,13.4
2019-05-17T20:05:34.988Z,13.4
2019-05-17T20:06:36.579Z,13.4
2019-05-17T20:07:39.299Z,13.3
2019-05-17T20:08:41.298Z,13.3
2019-05-17T20:09:42.629Z,13.3
2019-05-17T20:10:44.215Z,13.3
2019-05-17T20:11:46.079Z,13.3
2019-05-17T20:12:47.947Z,13.2
2019-05-17T20:13:49.836Z,13.1
2019-05-17T20:14:51.706Z,13.1
2019-05-17T20:15:53.576Z,13.1
2019-05-17T20:16:55.455Z,12.9
2019-05-17T20:17:57.322Z,13.1
2019-05-17T20:18:59.189Z,13
2019-05-17T20:20:01.057Z,13
2019-05-17T20:21:02.924Z,12.9
2019-05-17T20:22:04.790Z,13
2019-05-17T20:23:06.386Z,12.9
2019-05-17T20:24:08.236Z,12.8
2019-05-17T20:25:10.104Z,12.7
2019-05-17T20:26:11.706Z,12.8
2019-05-17T20:27:13.563Z,12.8
2019-05-17T20:28:15.429Z,12.8
2019-05-17T20:29:17.298Z,12.7
2019-05-17T20:30:18.616Z,12.7
2019-05-17T20:31:20.486Z,12.7
2019-05-17T20:32:22.352Z,12.6
2019-05-17T20:33:23.939Z,12.7
2019-05-17T20:34:25.808Z,12.8
2019-05-17T20:35:27.678Z,12.7
2019-05-17T20:36:29.554Z,12.6
2019-05-17T20:37:30.851Z,12.8
2019-05-17T20:38:32.717Z,12.8
2019-05-17T20:39:34.304Z,12.7
2019-05-17T20:40:36.173Z,12.6
2019-05-17T20:41:37.791Z,12.6
2019-05-17T20:42:38.579Z,12.6
2019-05-17T20:43:40.223Z,12.6
2019-05-17T20:44:42.069Z,12.5
2019-05-17T20:45:43.934Z,12.6
2019-05-17T20:46:45.804Z,12.6
2019-05-17T20:47:47.669Z,12.7
2019-05-17T20:48:49.262Z,12.6
2019-05-17T20:49:51.126Z,12.6
2019-05-17T20:50:52.997Z,12.5
2019-05-17T20:51:54.891Z,12.5
2019-05-17T20:52:56.489Z,12.6
2019-05-17T20:53:58.411Z,12.3
2019-05-17T20:55:00.289Z,12.3
2019-05-17T20:56:02.563Z,12.4
2019-05-17T20:57:04.430Z,12.5
2019-05-17T20:58:06.322Z,12.4
2019-05-17T20:59:08.174Z,12.3
2019-05-17T21:00:10.052Z,12.4
2019-05-17T21:01:11.920Z,12.5
2019-05-17T21:02:13.796Z,12.5
2019-05-17T21:03:15.664Z,12.4
2019-05-17T21:04:17.539Z,12.4
2019-05-17T21:05:19.132Z,12.4
2019-05-17T21:06:20.760Z,12.5
2019-05-17T21:07:22.658Z,12.4
2019-05-17T21:08:26.572Z,12.5
2019-05-17T21:09:28.649Z,12.4
2019-05-17T21:10:30.519Z,12.4
2019-05-17T21:11:32.390Z,12.4
2019-05-17T21:12:34.256Z,12.5
2019-05-17T21:13:36.126Z,12.3
2019-05-17T21:14:38.002Z,12.3
2019-05-17T21:15:47.244Z,12.3
2019-05-17T21:16:49.736Z,12.4
2019-05-17T21:17:51.615Z,12.4
2019-05-17T21:18:53.490Z,12.4
2019-05-17T21:19:55.358Z,12.4
2019-05-17T21:20:57.232Z,12.4
2019-05-17T21:21:59.099Z,12.4
2019-05-17T21:23:00.969Z,12.3
2019-05-17T21:24:02.283Z,12.3
2019-05-17T21:25:04.146Z,12.3
2019-05-17T21:26:06.013Z,12.3
2019-05-17T21:27:07.882Z,12.2
2019-05-17T21:28:09.762Z,12.2
2019-05-17T21:29:11.632Z,12.2
2019-05-17T21:30:13.500Z,12.2
2019-05-17T21:31:15.369Z,12.1
2019-05-17T21:32:16.963Z,12.1
2019-05-17T21:33:18.570Z,12.1
2019-05-17T21:34:20.425Z,12.1
2019-05-17T21:35:22.295Z,12.2
2019-05-17T21:36:24.167Z,12.1
2019-05-17T21:37:26.035Z,12
2019-05-17T21:38:27.905Z,12.1
2019-05-17T21:39:29.774Z,12
2019-05-17T21:40:31.647Z,12
2019-05-17T21:41:33.519Z,12
2019-05-17T21:42:35.106Z,12.1
2019-05-17T21:43:36.977Z,12
2019-05-17T21:44:38.855Z,11.9
2019-05-17T21:45:40.758Z,11.9
2019-05-17T21:46:42.649Z,11.9
2019-05-17T21:47:44.510Z,11.9
2019-05-17T21:48:45.569Z,12
2019-05-17T21:49:47.163Z,11.9
2019-05-17T21:50:49.037Z,11.9
2019-05-17T21:51:50.631Z,11.7
2019-05-17T21:52:52.514Z,11.9
2019-05-17T21:53:54.382Z,11.7
2019-05-17T21:54:56.261Z,11.8
2019-05-17T21:55:58.137Z,11.9
2019-05-17T21:57:00.005Z,11.7
2019-05-17T21:58:01.884Z,11.9
2019-05-17T21:59:03.753Z,11.7
2019-05-17T22:00:05.623Z,11.8
2019-05-17T22:01:07.502Z,11.7
2019-05-17T22:02:09.371Z,11.7
2019-05-17T22:03:11.236Z,11.8
2019-05-17T22:04:13.113Z,11.7
2019-05-17T22:05:14.981Z,11.8
2019-05-17T22:06:16.618Z,11.8
2019-05-17T22:07:18.494Z,11.7
2019-05-17T22:08:20.085Z,11.7
2019-05-17T22:09:21.961Z,11.7
2019-05-17T22:10:22.725Z,11.6
2019-05-17T22:11:24.632Z,11.6
2019-05-17T22:12:26.502Z,11.6
2019-05-17T22:13:28.374Z,11.7
2019-05-17T22:14:30.252Z,11.6
2019-05-17T22:15:32.133Z,11.5
2019-05-17T22:16:34.003Z,11.4
2019-05-17T22:17:35.878Z,11.4
2019-05-17T22:18:37.751Z,11.2
2019-05-17T22:19:39.630Z,11.3
2019-05-17T22:20:41.507Z,11.3
2019-05-17T22:21:42.268Z,11.3
2019-05-17T22:22:44.145Z,11.2
2019-05-17T22:23:46.017Z,11.1
2019-05-17T22:24:47.889Z,11.2
2019-05-17T22:25:49.763Z,11
2019-05-17T22:26:51.643Z,11.1
2019-05-17T22:27:53.515Z,11
2019-05-17T22:28:55.384Z,11
2019-05-17T22:29:57.256Z,11.2
2019-05-17T22:30:59.126Z,11.2
2019-05-17T22:32:00.726Z,11.2
2019-05-17T22:33:02.615Z,11.2
2019-05-17T22:34:04.494Z,11.2
2019-05-17T22:35:06.360Z,11.3
2019-05-17T22:36:07.939Z,11.2
2019-05-17T22:37:09.822Z,11.3
2019-05-17T22:38:11.701Z,11.3
2019-05-17T22:39:13.578Z,11.2
2019-05-17T22:40:15.447Z,11.3
2019-05-17T22:41:17.317Z,11.3
2019-05-17T22:42:19.201Z,11.2
2019-05-17T22:43:21.122Z,11.1
2019-05-17T22:44:21.893Z,11.2
2019-05-17T22:45:23.759Z,11.2
2019-05-17T22:46:35.362Z,11.4
2019-05-17T22:47:38.163Z,11.2
2019-05-17T22:48:40.022Z,11.2
2019-05-17T22:49:41.887Z,11.3
2019-05-17T22:50:43.756Z,11.2
2019-05-17T22:51:45.633Z,11.1
2019-05-17T22:52:47.507Z,11.2
2019-05-17T22:53:49.103Z,11
2019-05-17T22:54:51.078Z,11.1
2019-05-17T22:55:52.685Z,10.9
2019-05-17T22:56:54.552Z,11.1
2019-05-17T22:57:56.417Z,10.9
2019-05-17T22:58:58.286Z,10.9
2019-05-17T23:00:00.157Z,10.9
2019-05-17T23:01:02.027Z,10.9
2019-05-17T23:02:03.892Z,10.9
2019-05-17T23:03:05.470Z,11
2019-05-17T23:04:07.337Z,11
2019-05-17T23:05:09.222Z,11
2019-05-17T23:06:11.092Z,11
2019-05-17T23:07:12.956Z,10.9
2019-05-17T23:08:14.823Z,10.9
2019-05-17T23:09:16.400Z,10.8
2019-05-17T23:10:18.284Z,10.9
2019-05-17T23:11:20.154Z,10.8
2019-05-17T23:12:22.028Z,10.8
2019-05-17T23:13:23.896Z,10.8
2019-05-17T23:14:25.761Z,10.8
2019-05-17T23:15:27.631Z,10.8
2019-05-17T23:16:29.605Z,10.8
2019-05-17T23:17:31.471Z,10.8
2019-05-17T23:18:33.339Z,10.9
2019-05-17T23:19:35.213Z,10.9
2019-05-17T23:20:37.090Z,10.8
2019-05-17T23:21:38.954Z,10.7
2019-05-17T23:22:40.880Z,10.8
2019-05-17T23:23:42.787Z,10.7
2019-05-17T23:24:44.653Z,10.7
2019-05-17T23:25:46.653Z,10.7
2019-05-17T23:26:48.523Z,10.8
2019-05-17T23:27:50.101Z,10.7
2019-05-17T23:28:51.693Z,10.8
2019-05-17T23:29:53.563Z,10.8
2019-05-17T23:30:55.429Z,10.8
2019-05-17T23:31:57.297Z,10.8
2019-05-17T23:32:59.166Z,10.8
2019-05-17T23:34:01.037Z,10.7
2019-05-17T23:35:02.906Z,10.6
2019-05-17T23:36:04.770Z,10.6
2019-05-17T23:37:06.638Z,10.6
2019-05-17T23:38:08.245Z,10.4
2019-05-17T23:39:10.172Z,10.6
2019-05-17T23:40:12.045Z,10.5
2019-05-17T23:41:13.958Z,10.6
2019-05-17T23:42:15.823Z,10.4
2019-05-17T23:43:17.691Z,10.4
2019-05-17T23:44:19.563Z,10.4
2019-05-17T23:45:21.150Z,10.6
2019-05-17T23:46:23.020Z,10.4
2019-05-17T23:47:24.891Z,10.5
2019-05-17T23:48:26.755Z,10.5
2019-05-17T23:49:28.640Z,10.4
2019-05-17T23:50:30.558Z,10.4
2019-05-17T23:51:32.423Z,10.5
2019-05-17T23:52:34.013Z,10.4
2019-05-17T23:53:35.879Z,10.6
2019-05-17T23:54:37.467Z,10.4
2019-05-17T23:55:39.056Z,10.4
2019-05-17T23:56:40.643Z,10.4
2019-05-17T23:57:42.521Z,10.4
2019-05-17T23:58:44.390Z,10.4
2019-05-17T23:59:46.254Z,10.2
